CheckWX is a tool to help pilots better visualize weather data.  It is not intended as a substitute for an official pre-flight weather briefing.

06:53:49 UTC

ENVD TAF
Vadsø Airport
Vadsø, Norway
TAF ENVD 180500Z 1806/1815 32008KT 9999 FEW020 BKN030

Jun-18@
06:00 UTC

Jun-18 @ 06:00 UTC

Jun-18@
15:00 UTC

Jun-18 @ 15:00 UTC

TAF ENVD 180500Z 1806/1815 32008KT 9999 FEW020 BKN030
Wind
  • 320° at 8 KTS
Cloud Levels
  • Few at 2,000' AGL
  • Broken at 3,000' AGL